sensor_id;sensor_type;location;lat;lon;timestamp;P1;durP1;ratioP1;P2;durP2;ratioP2
68995;SDS011;56056;48.990;12.146;2024-01-30T00:01:17;1121.45;;;997.05;;
68995;SDS011;56056;48.990;12.146;2024-01-30T00:03:45;1152.95;;;999.90;;
68995;SDS011;56056;48.990;12.146;2024-01-30T00:06:11;1101.80;;;986.55;;
68995;SDS011;56056;48.990;12.146;2024-01-30T00:08:37;1146.32;;;999.90;;
68995;SDS011;56056;48.990;12.146;2024-01-30T00:11:03;1172.93;;;999.90;;
68995;SDS011;56056;48.990;12.146;2024-01-30T00:13:29;1116.03;;;998.90;;
68995;SDS011;56056;48.990;12.146;2024-01-30T00:15:55;1151.43;;;999.90;;
68995;SDS011;56056;48.990;12.146;2024-01-30T00:18:20;1150.53;;;999.90;;
68995;SDS011;56056;48.990;12.146;2024-01-30T00:20:48;1137.18;;;999.90;;
68995;SDS011;56056;48.990;12.146;2024-01-30T00:23:14;1109.15;;;987.22;;
68995;SDS011;56056;48.990;12.146;2024-01-30T00:25:39;1190.30;;;999.90;;
68995;SDS011;56056;48.990;12.146;2024-01-30T00:28:05;1193.35;;;999.90;;
68995;SDS011;56056;48.990;12.146;2024-01-30T00:30:31;1183.38;;;999.90;;
68995;SDS011;56056;48.990;12.146;2024-01-30T00:32:57;1244.18;;;999.90;;
68995;SDS011;56056;48.990;12.146;2024-01-30T00:35:23;1274.28;;;999.90;;
68995;SDS011;56056;48.990;12.146;2024-01-30T00:37:50;1341.18;;;999.90;;
68995;SDS011;56056;48.990;12.146;2024-01-30T00:40:16;1316.30;;;999.90;;
68995;SDS011;56056;48.990;12.146;2024-01-30T00:42:43;1213.40;;;999.90;;
68995;SDS011;56056;48.990;12.146;2024-01-30T00:45:11;1276.80;;;999.90;;
68995;SDS011;56056;48.990;12.146;2024-01-30T00:47:38;1334.70;;;999.90;;
68995;SDS011;56056;48.990;12.146;2024-01-30T00:50:05;1361.78;;;999.90;;
68995;SDS011;56056;48.990;12.146;2024-01-30T00:52:31;1386.03;;;999.90;;
68995;SDS011;56056;48.990;12.146;2024-01-30T00:54:59;1454.90;;;999.90;;
68995;SDS011;56056;48.990;12.146;2024-01-30T00:57:25;1535.78;;;999.90;;
68995;SDS011;56056;48.990;12.146;2024-01-30T00:59:52;1519.38;;;999.90;;
68995;SDS011;56056;48.990;12.146;2024-01-30T01:02:17;1536.55;;;999.90;;
68995;SDS011;56056;48.990;12.146;2024-01-30T01:04:43;1523.13;;;999.90;;
68995;SDS011;56056;48.990;12.146;2024-01-30T01:07:09;1494.03;;;999.90;;
68995;SDS011;56056;48.990;12.146;2024-01-30T01:09:35;1538.13;;;999.90;;
68995;SDS011;56056;48.990;12.146;2024-01-30T01:12:03;1488.53;;;999.90;;
68995;SDS011;56056;48.990;12.146;2024-01-30T01:14:30;1442.03;;;999.90;;
68995;SDS011;56056;48.990;12.146;2024-01-30T01:16:56;1683.28;;;999.90;;
68995;SDS011;56056;48.990;12.146;2024-01-30T01:19:22;1608.65;;;999.90;;
68995;SDS011;56056;48.990;12.146;2024-01-30T01:21:48;1590.10;;;999.90;;
68995;SDS011;56056;48.990;12.146;2024-01-30T01:24:13;1734.18;;;999.90;;
68995;SDS011;56056;48.990;12.146;2024-01-30T01:26:39;1769.43;;;999.90;;
68995;SDS011;56056;48.990;12.146;2024-01-30T01:29:07;1802.30;;;999.90;;
68995;SDS011;56056;48.990;12.146;2024-01-30T01:31:37;1798.65;;;999.90;;
68995;SDS011;56056;48.990;12.146;2024-01-30T01:34:09;1952.60;;;999.90;;
68995;SDS011;56056;48.990;12.146;2024-01-30T01:36:35;1952.13;;;999.90;;
68995;SDS011;56056;48.990;12.146;2024-01-30T01:39:01;1973.85;;;999.90;;
68995;SDS011;56056;48.990;12.146;2024-01-30T01:41:29;1999.05;;;999.90;;
68995;SDS011;56056;48.990;12.146;2024-01-30T01:43:55;1999.90;;;999.90;;
68995;SDS011;56056;48.990;12.146;2024-01-30T01:46:23;1999.90;;;999.90;;
68995;SDS011;56056;48.990;12.146;2024-01-30T01:48:52;1999.90;;;999.90;;
68995;SDS011;56056;48.990;12.146;2024-01-30T01:51:18;1999.90;;;999.90;;
68995;SDS011;56056;48.990;12.146;2024-01-30T01:53:44;1965.90;;;999.90;;
68995;SDS011;56056;48.990;12.146;2024-01-30T01:56:10;1999.90;;;999.90;;
68995;SDS011;56056;48.990;12.146;2024-01-30T01:58:36;1999.90;;;999.90;;
68995;SDS011;56056;48.990;12.146;2024-01-30T02:01:03;1989.88;;;999.90;;
68995;SDS011;56056;48.990;12.146;2024-01-30T02:03:31;1999.90;;;999.90;;
68995;SDS011;56056;48.990;12.146;2024-01-30T02:05:58;1999.90;;;999.90;;
68995;SDS011;56056;48.990;12.146;2024-01-30T02:08:24;1999.90;;;999.90;;
68995;SDS011;56056;48.990;12.146;2024-01-30T02:10:51;1999.90;;;999.90;;
68995;SDS011;56056;48.990;12.146;2024-01-30T02:13:17;1999.90;;;999.90;;
68995;SDS011;56056;48.990;12.146;2024-01-30T02:15:42;1999.90;;;999.90;;
68995;SDS011;56056;48.990;12.146;2024-01-30T02:18:08;1999.90;;;999.90;;
68995;SDS011;56056;48.990;12.146;2024-01-30T02:20:35;1999.90;;;999.90;;
68995;SDS011;56056;48.990;12.146;2024-01-30T02:23:05;1999.90;;;999.90;;
68995;SDS011;56056;48.990;12.146;2024-01-30T02:25:36;1999.90;;;999.90;;
68995;SDS011;56056;48.990;12.146;2024-01-30T02:28:09;1999.90;;;999.90;;
68995;SDS011;56056;48.990;12.146;2024-01-30T02:30:35;1999.90;;;999.90;;
68995;SDS011;56056;48.990;12.146;2024-01-30T02:33:01;1999.90;;;999.90;;
68995;SDS011;56056;48.990;12.146;2024-01-30T02:35:27;1999.90;;;999.90;;
68995;SDS011;56056;48.990;12.146;2024-01-30T02:37:53;1999.90;;;999.90;;
68995;SDS011;56056;48.990;12.146;2024-01-30T02:40:20;1999.90;;;999.90;;
68995;SDS011;56056;48.990;12.146;2024-01-30T02:42:46;1999.90;;;999.90;;
68995;SDS011;56056;48.990;12.146;2024-01-30T02:45:12;1999.90;;;999.90;;
68995;SDS011;56056;48.990;12.146;2024-01-30T02:47:39;1999.90;;;999.90;;
68995;SDS011;56056;48.990;12.146;2024-01-30T02:50:05;1999.90;;;999.90;;
68995;SDS011;56056;48.990;12.146;2024-01-30T02:52:32;1999.90;;;999.90;;
68995;SDS011;56056;48.990;12.146;2024-01-30T02:54:58;1999.90;;;999.90;;
68995;SDS011;56056;48.990;12.146;2024-01-30T02:57:26;1999.90;;;999.90;;
68995;SDS011;56056;48.990;12.146;2024-01-30T02:59:52;1999.90;;;999.90;;
68995;SDS011;56056;48.990;12.146;2024-01-30T03:02:17;1999.90;;;999.90;;
68995;SDS011;56056;48.990;12.146;2024-01-30T03:04:43;1999.90;;;999.90;;
68995;SDS011;56056;48.990;12.146;2024-01-30T03:07:10;1999.90;;;999.90;;
68995;SDS011;56056;48.990;12.146;2024-01-30T03:09:36;1999.90;;;999.90;;
68995;SDS011;56056;48.990;12.146;2024-01-30T03:12:02;1999.90;;;999.90;;
68995;SDS011;56056;48.990;12.146;2024-01-30T03:14:31;1999.90;;;999.90;;
68995;SDS011;56056;48.990;12.146;2024-01-30T03:16:57;1999.90;;;999.90;;
68995;SDS011;56056;48.990;12.146;2024-01-30T03:19:22;1999.90;;;999.90;;
68995;SDS011;56056;48.990;12.146;2024-01-30T03:21:48;1999.90;;;999.90;;
68995;SDS011;56056;48.990;12.146;2024-01-30T03:24:14;1999.90;;;999.90;;
68995;SDS011;56056;48.990;12.146;2024-01-30T03:26:40;1999.90;;;999.90;;
68995;SDS011;56056;48.990;12.146;2024-01-30T03:29:06;1999.90;;;999.90;;
68995;SDS011;56056;48.990;12.146;2024-01-30T03:31:34;1999.90;;;999.90;;
68995;SDS011;56056;48.990;12.146;2024-01-30T03:34:00;1999.90;;;999.90;;
68995;SDS011;56056;48.990;12.146;2024-01-30T03:36:26;1999.90;;;999.90;;
68995;SDS011;56056;48.990;12.146;2024-01-30T03:38:52;1999.90;;;999.90;;
68995;SDS011;56056;48.990;12.146;2024-01-30T03:41:18;1999.90;;;999.90;;
68995;SDS011;56056;48.990;12.146;2024-01-30T03:43:44;1999.90;;;999.90;;
68995;SDS011;56056;48.990;12.146;2024-01-30T03:46:11;1999.90;;;999.90;;
68995;SDS011;56056;48.990;12.146;2024-01-30T03:48:38;1999.90;;;999.90;;
68995;SDS011;56056;48.990;12.146;2024-01-30T03:51:05;1999.90;;;999.90;;
68995;SDS011;56056;48.990;12.146;2024-01-30T03:53:30;1999.90;;;999.90;;
68995;SDS011;56056;48.990;12.146;2024-01-30T03:55:56;1999.90;;;999.90;;
68995;SDS011;56056;48.990;12.146;2024-01-30T03:58:22;1999.90;;;999.90;;
68995;SDS011;56056;48.990;12.146;2024-01-30T04:00:48;1999.90;;;999.90;;
68995;SDS011;56056;48.990;12.146;2024-01-30T04:03:14;1999.90;;;999.90;;
68995;SDS011;56056;48.990;12.146;2024-01-30T04:05:44;1999.90;;;999.90;;
68995;SDS011;56056;48.990;12.146;2024-01-30T04:08:10;1999.90;;;999.90;;
68995;SDS011;56056;48.990;12.146;2024-01-30T04:10:36;1999.90;;;999.90;;
68995;SDS011;56056;48.990;12.146;2024-01-30T04:13:02;1999.90;;;999.90;;
68995;SDS011;56056;48.990;12.146;2024-01-30T04:15:28;1999.90;;;999.90;;
68995;SDS011;56056;48.990;12.146;2024-01-30T04:17:56;1999.90;;;999.90;;
68995;SDS011;56056;48.990;12.146;2024-01-30T04:20:23;1999.90;;;999.90;;
68995;SDS011;56056;48.990;12.146;2024-01-30T04:22:50;1972.70;;;999.90;;
68995;SDS011;56056;48.990;12.146;2024-01-30T04:25:16;1999.90;;;999.90;;
68995;SDS011;56056;48.990;12.146;2024-01-30T04:27:42;1905.32;;;999.90;;
68995;SDS011;56056;48.990;12.146;2024-01-30T04:30:08;1711.90;;;999.90;;
68995;SDS011;56056;48.990;12.146;2024-01-30T04:32:35;1657.70;;;950.17;;
68995;SDS011;56056;48.990;12.146;2024-01-30T04:35:02;1728.93;;;999.90;;
68995;SDS011;56056;48.990;12.146;2024-01-30T04:37:28;1666.10;;;987.40;;
68995;SDS011;56056;48.990;12.146;2024-01-30T04:39:56;1806.00;;;988.95;;
68995;SDS011;56056;48.990;12.146;2024-01-30T04:42:22;1467.28;;;813.40;;
68995;SDS011;56056;48.990;12.146;2024-01-30T04:44:47;1444.80;;;811.60;;
68995;SDS011;56056;48.990;12.146;2024-01-30T04:47:14;1407.00;;;772.08;;
68995;SDS011;56056;48.990;12.146;2024-01-30T04:49:41;1386.95;;;768.97;;
68995;SDS011;56056;48.990;12.146;2024-01-30T04:52:07;1499.45;;;812.35;;
68995;SDS011;56056;48.990;12.146;2024-01-30T04:54:33;1388.25;;;804.88;;
68995;SDS011;56056;48.990;12.146;2024-01-30T04:57:01;1365.20;;;789.65;;
68995;SDS011;56056;48.990;12.146;2024-01-30T04:59:27;1428.85;;;797.22;;
68995;SDS011;56056;48.990;12.146;2024-01-30T05:01:54;1374.85;;;709.40;;
68995;SDS011;56056;48.990;12.146;2024-01-30T05:04:20;1237.85;;;642.33;;
68995;SDS011;56056;48.990;12.146;2024-01-30T05:06:47;1248.57;;;654.58;;
68995;SDS011;56056;48.990;12.146;2024-01-30T05:09:12;1128.05;;;569.88;;
68995;SDS011;56056;48.990;12.146;2024-01-30T05:11:39;1271.43;;;664.03;;
68995;SDS011;56056;48.990;12.146;2024-01-30T05:14:07;1273.18;;;659.55;;
68995;SDS011;56056;48.990;12.146;2024-01-30T05:16:36;1010.92;;;509.38;;
68995;SDS011;56056;48.990;12.146;2024-01-30T05:19:03;1230.88;;;607.72;;
68995;SDS011;56056;48.990;12.146;2024-01-30T05:21:28;1310.60;;;641.83;;
68995;SDS011;56056;48.990;12.146;2024-01-30T05:23:54;1315.43;;;618.50;;
68995;SDS011;56056;48.990;12.146;2024-01-30T05:26:20;1444.68;;;887.40;;
68995;SDS011;56056;48.990;12.146;2024-01-30T05:28:47;1190.75;;;608.30;;
68995;SDS011;56056;48.990;12.146;2024-01-30T05:31:15;1245.53;;;607.25;;
68995;SDS011;56056;48.990;12.146;2024-01-30T05:33:40;1253.63;;;599.30;;
68995;SDS011;56056;48.990;12.146;2024-01-30T05:36:06;1184.65;;;591.72;;
68995;SDS011;56056;48.990;12.146;2024-01-30T05:38:33;1215.47;;;596.63;;
68995;SDS011;56056;48.990;12.146;2024-01-30T05:40:58;1124.97;;;551.88;;
68995;SDS011;56056;48.990;12.146;2024-01-30T05:43:24;1046.20;;;547.08;;
68995;SDS011;56056;48.990;12.146;2024-01-30T05:45:50;1108.97;;;585.50;;
68995;SDS011;56056;48.990;12.146;2024-01-30T05:48:18;1364.65;;;716.40;;
68995;SDS011;56056;48.990;12.146;2024-01-30T05:50:44;1096.97;;;599.92;;
68995;SDS011;56056;48.990;12.146;2024-01-30T05:53:10;1353.03;;;767.72;;
68995;SDS011;56056;48.990;12.146;2024-01-30T05:55:36;1417.80;;;792.92;;
68995;SDS011;56056;48.990;12.146;2024-01-30T05:58:02;1197.93;;;705.30;;
68995;SDS011;56056;48.990;12.146;2024-01-30T06:00:29;1481.55;;;836.72;;
68995;SDS011;56056;48.990;12.146;2024-01-30T06:02:55;1208.88;;;708.30;;
68995;SDS011;56056;48.990;12.146;2024-01-30T06:05:22;1338.80;;;753.75;;
68995;SDS011;56056;48.990;12.146;2024-01-30T06:07:48;1218.50;;;680.75;;
68995;SDS011;56056;48.990;12.146;2024-01-30T06:10:14;1218.22;;;684.13;;
68995;SDS011;56056;48.990;12.146;2024-01-30T06:12:40;1268.05;;;748.28;;
68995;SDS011;56056;48.990;12.146;2024-01-30T06:15:06;1258.40;;;773.30;;
68995;SDS011;56056;48.990;12.146;2024-01-30T06:17:33;1544.55;;;980.80;;
68995;SDS011;56056;48.990;12.146;2024-01-30T06:19:59;1217.47;;;790.92;;
68995;SDS011;56056;48.990;12.146;2024-01-30T06:22:26;1219.95;;;740.30;;
68995;SDS011;56056;48.990;12.146;2024-01-30T06:24:52;1046.82;;;658.00;;
68995;SDS011;56056;48.990;12.146;2024-01-30T06:27:18;962.90;;;544.83;;
68995;SDS011;56056;48.990;12.146;2024-01-30T06:29:43;1198.55;;;723.25;;
68995;SDS011;56056;48.990;12.146;2024-01-30T06:32:09;1196.03;;;686.58;;
68995;SDS011;56056;48.990;12.146;2024-01-30T06:34:35;1317.88;;;808.22;;
68995;SDS011;56056;48.990;12.146;2024-01-30T06:37:01;1218.45;;;754.83;;
68995;SDS011;56056;48.990;12.146;2024-01-30T06:39:28;1237.18;;;775.20;;
68995;SDS011;56056;48.990;12.146;2024-01-30T06:41:54;1394.75;;;814.60;;
68995;SDS011;56056;48.990;12.146;2024-01-30T06:44:20;1413.65;;;871.10;;
68995;SDS011;56056;48.990;12.146;2024-01-30T06:46:46;1428.97;;;891.35;;
68995;SDS011;56056;48.990;12.146;2024-01-30T06:49:12;1309.55;;;767.55;;
68995;SDS011;56056;48.990;12.146;2024-01-30T06:51:38;1517.25;;;883.53;;
68995;SDS011;56056;48.990;12.146;2024-01-30T06:54:04;1506.53;;;836.53;;
68995;SDS011;56056;48.990;12.146;2024-01-30T06:56:31;1476.32;;;805.40;;
68995;SDS011;56056;48.990;12.146;2024-01-30T06:58:57;1606.38;;;917.47;;
68995;SDS011;56056;48.990;12.146;2024-01-30T07:01:27;1558.25;;;828.42;;
68995;SDS011;56056;48.990;12.146;2024-01-30T07:03:54;1436.07;;;843.03;;
68995;SDS011;56056;48.990;12.146;2024-01-30T07:06:19;1256.20;;;753.75;;
68995;SDS011;56056;48.990;12.146;2024-01-30T07:08:45;1310.07;;;773.33;;
68995;SDS011;56056;48.990;12.146;2024-01-30T07:11:17;1361.80;;;808.30;;
68995;SDS011;56056;48.990;12.146;2024-01-30T07:13:46;1285.70;;;772.25;;
68995;SDS011;56056;48.990;12.146;2024-01-30T07:16:12;1225.93;;;748.58;;
68995;SDS011;56056;48.990;12.146;2024-01-30T07:18:38;1688.30;;;905.92;;
68995;SDS011;56056;48.990;12.146;2024-01-30T07:21:04;1414.07;;;740.83;;
68995;SDS011;56056;48.990;12.146;2024-01-30T07:23:30;1299.53;;;654.60;;
68995;SDS011;56056;48.990;12.146;2024-01-30T07:25:56;1611.57;;;773.75;;
68995;SDS011;56056;48.990;12.146;2024-01-30T07:28:22;1687.68;;;859.38;;
68995;SDS011;56056;48.990;12.146;2024-01-30T07:30:50;1463.28;;;767.30;;
68995;SDS011;56056;48.990;12.146;2024-01-30T07:33:16;1514.72;;;836.63;;
68995;SDS011;56056;48.990;12.146;2024-01-30T07:35:42;1522.63;;;764.38;;
68995;SDS011;56056;48.990;12.146;2024-01-30T07:38:08;1665.93;;;855.03;;
68995;SDS011;56056;48.990;12.146;2024-01-30T07:40:34;1800.35;;;828.60;;
68995;SDS011;56056;48.990;12.146;2024-01-30T07:43:00;1734.65;;;755.75;;
68995;SDS011;56056;48.990;12.146;2024-01-30T07:45:26;1974.95;;;822.28;;
68995;SDS011;56056;48.990;12.146;2024-01-30T07:47:58;1637.85;;;999.90;;
68995;SDS011;56056;48.990;12.146;2024-01-30T07:50:25;1882.90;;;999.90;;
68995;SDS011;56056;48.990;12.146;2024-01-30T07:52:51;1988.00;;;999.90;;
68995;SDS011;56056;48.990;12.146;2024-01-30T07:55:19;1906.78;;;999.90;;
68995;SDS011;56056;48.990;12.146;2024-01-30T07:57:46;622.88;;;569.00;;
68995;SDS011;56056;48.990;12.146;2024-01-30T08:00:13;231.20;;;213.43;;
68995;SDS011;56056;48.990;12.146;2024-01-30T08:02:40;105.50;;;99.70;;
68995;SDS011;56056;48.990;12.146;2024-01-30T08:05:08;16.40;;;15.60;;
68995;SDS011;56056;48.990;12.146;2024-01-30T08:07:36;17.98;;;17.25;;
68995;SDS011;56056;48.990;12.146;2024-01-30T08:10:02;18.48;;;17.77;;
68995;SDS011;56056;48.990;12.146;2024-01-30T08:12:28;21.20;;;20.48;;
68995;SDS011;56056;48.990;12.146;2024-01-30T08:14:54;31.88;;;30.67;;
68995;SDS011;56056;48.990;12.146;2024-01-30T08:17:20;50.88;;;48.95;;
68995;SDS011;56056;48.990;12.146;2024-01-30T08:19:46;50.35;;;48.42;;
68995;SDS011;56056;48.990;12.146;2024-01-30T08:22:13;47.88;;;46.13;;
68995;SDS011;56056;48.990;12.146;2024-01-30T08:24:40;58.75;;;56.50;;
68995;SDS011;56056;48.990;12.146;2024-01-30T08:27:06;60.92;;;58.58;;
68995;SDS011;56056;48.990;12.146;2024-01-30T08:29:34;67.53;;;64.85;;
68995;SDS011;56056;48.990;12.146;2024-01-30T08:32:00;68.22;;;65.32;;
68995;SDS011;56056;48.990;12.146;2024-01-30T08:34:26;47.65;;;45.90;;
68995;SDS011;56056;48.990;12.146;2024-01-30T08:36:52;67.15;;;64.40;;
68995;SDS011;56056;48.990;12.146;2024-01-30T08:39:19;94.82;;;91.22;;
68995;SDS011;56056;48.990;12.146;2024-01-30T08:41:45;125.50;;;120.35;;
68995;SDS011;56056;48.990;12.146;2024-01-30T08:44:11;141.93;;;136.43;;
68995;SDS011;56056;48.990;12.146;2024-01-30T08:46:37;82.00;;;78.88;;
68995;SDS011;56056;48.990;12.146;2024-01-30T08:49:03;129.25;;;124.28;;
68995;SDS011;56056;48.990;12.146;2024-01-30T08:51:32;131.93;;;126.88;;
68995;SDS011;56056;48.990;12.146;2024-01-30T08:53:58;113.55;;;109.22;;
68995;SDS011;56056;48.990;12.146;2024-01-30T08:56:26;172.73;;;166.00;;
68995;SDS011;56056;48.990;12.146;2024-01-30T08:59:00;208.52;;;200.35;;
68995;SDS011;56056;48.990;12.146;2024-01-30T09:01:26;186.15;;;179.10;;
68995;SDS011;56056;48.990;12.146;2024-01-30T09:03:52;223.15;;;214.43;;
68995;SDS011;56056;48.990;12.146;2024-01-30T09:06:18;231.13;;;221.90;;
68995;SDS011;56056;48.990;12.146;2024-01-30T09:08:44;241.05;;;231.43;;
68995;SDS011;56056;48.990;12.146;2024-01-30T09:11:09;172.73;;;165.93;;
68995;SDS011;56056;48.990;12.146;2024-01-30T09:13:37;162.98;;;156.45;;
68995;SDS011;56056;48.990;12.146;2024-01-30T09:16:04;180.23;;;173.27;;
68995;SDS011;56056;48.990;12.146;2024-01-30T09:18:30;186.63;;;179.45;;
68995;SDS011;56056;48.990;12.146;2024-01-30T09:20:56;219.65;;;211.30;;
68995;SDS011;56056;48.990;12.146;2024-01-30T09:23:22;137.45;;;131.95;;
68995;SDS011;56056;48.990;12.146;2024-01-30T09:25:47;200.73;;;193.15;;
68995;SDS011;56056;48.990;12.146;2024-01-30T09:28:13;264.02;;;253.70;;
68995;SDS011;56056;48.990;12.146;2024-01-30T09:30:39;136.73;;;131.27;;
68995;SDS011;56056;48.990;12.146;2024-01-30T09:33:06;359.20;;;344.52;;
68995;SDS011;56056;48.990;12.146;2024-01-30T09:35:32;362.25;;;347.95;;
68995;SDS011;56056;48.990;12.146;2024-01-30T09:37:58;339.45;;;325.98;;
68995;SDS011;56056;48.990;12.146;2024-01-30T09:40:24;312.25;;;299.83;;
68995;SDS011;56056;48.990;12.146;2024-01-30T09:42:50;305.63;;;293.17;;
68995;SDS011;56056;48.990;12.146;2024-01-30T09:45:17;344.63;;;330.73;;
68995;SDS011;56056;48.990;12.146;2024-01-30T09:47:44;245.57;;;236.02;;
68995;SDS011;56056;48.990;12.146;2024-01-30T09:50:12;401.63;;;385.10;;
68995;SDS011;56056;48.990;12.146;2024-01-30T09:52:38;427.00;;;408.50;;
68995;SDS011;56056;48.990;12.146;2024-01-30T09:55:04;327.65;;;314.70;;
68995;SDS011;56056;48.990;12.146;2024-01-30T09:57:30;298.15;;;286.08;;
68995;SDS011;56056;48.990;12.146;2024-01-30T09:59:56;240.98;;;231.52;;
68995;SDS011;56056;48.990;12.146;2024-01-30T10:02:22;202.07;;;194.35;;
68995;SDS011;56056;48.990;12.146;2024-01-30T10:04:48;192.80;;;185.07;;
68995;SDS011;56056;48.990;12.146;2024-01-30T10:07:16;144.73;;;139.10;;
68995;SDS011;56056;48.990;12.146;2024-01-30T10:09:42;236.60;;;227.57;;
68995;SDS011;56056;48.990;12.146;2024-01-30T10:12:07;159.90;;;153.50;;
68995;SDS011;56056;48.990;12.146;2024-01-30T10:14:37;169.93;;;163.30;;
68995;SDS011;56056;48.990;12.146;2024-01-30T10:17:03;189.48;;;182.10;;
68995;SDS011;56056;48.990;12.146;2024-01-30T10:19:30;145.48;;;139.60;;
68995;SDS011;56056;48.990;12.146;2024-01-30T10:21:56;166.55;;;160.00;;
68995;SDS011;56056;48.990;12.146;2024-01-30T10:24:25;149.38;;;143.52;;
68995;SDS011;56056;48.990;12.146;2024-01-30T10:26:50;224.82;;;216.05;;
68995;SDS011;56056;48.990;12.146;2024-01-30T10:29:16;142.43;;;136.88;;
68995;SDS011;56056;48.990;12.146;2024-01-30T10:31:42;202.45;;;194.65;;
68995;SDS011;56056;48.990;12.146;2024-01-30T10:34:08;249.75;;;240.00;;
68995;SDS011;56056;48.990;12.146;2024-01-30T10:36:34;220.48;;;211.85;;
68995;SDS011;56056;48.990;12.146;2024-01-30T10:39:06;162.52;;;156.25;;
68995;SDS011;56056;48.990;12.146;2024-01-30T10:41:34;185.63;;;178.40;;
68995;SDS011;56056;48.990;12.146;2024-01-30T10:44:08;187.82;;;180.55;;
68995;SDS011;56056;48.990;12.146;2024-01-30T10:46:34;218.65;;;210.10;;
68995;SDS011;56056;48.990;12.146;2024-01-30T10:49:00;202.38;;;194.40;;
68995;SDS011;56056;48.990;12.146;2024-01-30T10:51:27;103.35;;;99.43;;
68995;SDS011;56056;48.990;12.146;2024-01-30T10:53:53;171.38;;;164.75;;
68995;SDS011;56056;48.990;12.146;2024-01-30T10:56:19;78.18;;;75.18;;
68995;SDS011;56056;48.990;12.146;2024-01-30T10:58:47;137.00;;;131.68;;
68995;SDS011;56056;48.990;12.146;2024-01-30T11:01:13;176.90;;;170.15;;
68995;SDS011;56056;48.990;12.146;2024-01-30T11:03:40;190.75;;;183.35;;
68995;SDS011;56056;48.990;12.146;2024-01-30T11:06:10;178.98;;;172.23;;
68995;SDS011;56056;48.990;12.146;2024-01-30T11:08:36;138.20;;;132.68;;
68995;SDS011;56056;48.990;12.146;2024-01-30T11:11:01;77.70;;;74.80;;
68995;SDS011;56056;48.990;12.146;2024-01-30T11:13:27;122.20;;;117.57;;
68995;SDS011;56056;48.990;12.146;2024-01-30T11:15:55;152.00;;;146.07;;
68995;SDS011;56056;48.990;12.146;2024-01-30T11:18:25;144.02;;;138.52;;
68995;SDS011;56056;48.990;12.146;2024-01-30T11:20:53;229.95;;;221.00;;
68995;SDS011;56056;48.990;12.146;2024-01-30T11:23:22;217.23;;;208.88;;
68995;SDS011;56056;48.990;12.146;2024-01-30T11:25:48;92.40;;;88.95;;
68995;SDS011;56056;48.990;12.146;2024-01-30T11:28:14;142.80;;;137.40;;
68995;SDS011;56056;48.990;12.146;2024-01-30T11:30:40;108.15;;;103.97;;
68995;SDS011;56056;48.990;12.146;2024-01-30T11:33:08;128.75;;;123.85;;
68995;SDS011;56056;48.990;12.146;2024-01-30T11:35:36;181.20;;;174.18;;
68995;SDS011;56056;48.990;12.146;2024-01-30T11:38:04;149.43;;;143.68;;
68995;SDS011;56056;48.990;12.146;2024-01-30T11:40:31;114.05;;;109.78;;
68995;SDS011;56056;48.990;12.146;2024-01-30T11:42:58;140.50;;;135.13;;
68995;SDS011;56056;48.990;12.146;2024-01-30T11:45:24;110.85;;;106.72;;
68995;SDS011;56056;48.990;12.146;2024-01-30T11:47:51;154.63;;;148.77;;
68995;SDS011;56056;48.990;12.146;2024-01-30T11:50:18;178.88;;;172.02;;
68995;SDS011;56056;48.990;12.146;2024-01-30T11:52:43;154.30;;;148.23;;
68995;SDS011;56056;48.990;12.146;2024-01-30T11:55:09;169.73;;;163.35;;
68995;SDS011;56056;48.990;12.146;2024-01-30T11:57:35;154.45;;;148.65;;
68995;SDS011;56056;48.990;12.146;2024-01-30T12:00:02;157.75;;;151.82;;
68995;SDS011;56056;48.990;12.146;2024-01-30T12:02:33;161.65;;;155.55;;
68995;SDS011;56056;48.990;12.146;2024-01-30T12:04:59;111.13;;;106.95;;
68995;SDS011;56056;48.990;12.146;2024-01-30T12:07:30;108.93;;;104.75;;
68995;SDS011;56056;48.990;12.146;2024-01-30T12:09:56;111.80;;;107.50;;
68995;SDS011;56056;48.990;12.146;2024-01-30T12:12:22;78.75;;;75.72;;
68995;SDS011;56056;48.990;12.146;2024-01-30T12:14:49;87.95;;;84.68;;
68995;SDS011;56056;48.990;12.146;2024-01-30T12:17:22;78.53;;;75.28;;
68995;SDS011;56056;48.990;12.146;2024-01-30T12:19:48;101.10;;;97.32;;
68995;SDS011;56056;48.990;12.146;2024-01-30T12:22:14;121.38;;;116.80;;
68995;SDS011;56056;48.990;12.146;2024-01-30T12:24:41;128.77;;;123.95;;
68995;SDS011;56056;48.990;12.146;2024-01-30T12:27:07;141.27;;;135.75;;
68995;SDS011;56056;48.990;12.146;2024-01-30T12:29:32;138.75;;;133.50;;
68995;SDS011;56056;48.990;12.146;2024-01-30T12:31:58;102.30;;;98.47;;
68995;SDS011;56056;48.990;12.146;2024-01-30T12:34:25;101.43;;;97.70;;
68995;SDS011;56056;48.990;12.146;2024-01-30T12:36:50;104.68;;;100.68;;
68995;SDS011;56056;48.990;12.146;2024-01-30T12:39:16;93.70;;;90.10;;
68995;SDS011;56056;48.990;12.146;2024-01-30T12:41:44;119.03;;;114.47;;
68995;SDS011;56056;48.990;12.146;2024-01-30T12:44:09;113.32;;;109.07;;
68995;SDS011;56056;48.990;12.146;2024-01-30T12:46:35;125.30;;;120.55;;
68995;SDS011;56056;48.990;12.146;2024-01-30T12:49:01;108.65;;;104.38;;
68995;SDS011;56056;48.990;12.146;2024-01-30T12:51:26;169.55;;;162.82;;
68995;SDS011;56056;48.990;12.146;2024-01-30T12:53:52;125.97;;;121.10;;
68995;SDS011;56056;48.990;12.146;2024-01-30T12:56:18;137.75;;;132.55;;
68995;SDS011;56056;48.990;12.146;2024-01-30T12:58:44;172.00;;;165.43;;
68995;SDS011;56056;48.990;12.146;2024-01-30T13:01:10;144.00;;;138.45;;
68995;SDS011;56056;48.990;12.146;2024-01-30T13:03:36;153.73;;;147.82;;
68995;SDS011;56056;48.990;12.146;2024-01-30T13:06:02;174.23;;;167.57;;
68995;SDS011;56056;48.990;12.146;2024-01-30T13:08:28;120.82;;;116.05;;
68995;SDS011;56056;48.990;12.146;2024-01-30T13:10:54;160.50;;;154.23;;
68995;SDS011;56056;48.990;12.146;2024-01-30T13:13:19;190.50;;;183.20;;
68995;SDS011;56056;48.990;12.146;2024-01-30T13:15:46;125.70;;;120.85;;
68995;SDS011;56056;48.990;12.146;2024-01-30T13:18:12;209.43;;;201.48;;
68995;SDS011;56056;48.990;12.146;2024-01-30T13:20:38;335.08;;;321.75;;
68995;SDS011;56056;48.990;12.146;2024-01-30T13:23:03;207.80;;;199.63;;
68995;SDS011;56056;48.990;12.146;2024-01-30T13:25:29;132.63;;;127.38;;
68995;SDS011;56056;48.990;12.146;2024-01-30T13:27:55;122.97;;;118.18;;
68995;SDS011;56056;48.990;12.146;2024-01-30T13:30:20;113.60;;;109.25;;
68995;SDS011;56056;48.990;12.146;2024-01-30T13:32:47;169.68;;;163.15;;
68995;SDS011;56056;48.990;12.146;2024-01-30T13:35:13;257.30;;;247.40;;